createdAt,value
2023-03-27T00:00:59.148Z,7.79
2023-03-27T00:01:59.169Z,7.82
2023-03-27T00:02:59.300Z,7.85
2023-03-27T00:03:59.198Z,7.86
2023-03-27T00:04:59.151Z,7.88
2023-03-27T00:05:59.166Z,7.91
2023-03-27T00:06:59.170Z,7.93
2023-03-27T00:07:59.172Z,7.91
2023-03-27T00:08:59.169Z,7.75
2023-03-27T00:09:59.163Z,7.67
2023-03-27T00:10:59.218Z,7.62
2023-03-27T00:11:59.203Z,7.64
2023-03-27T00:12:59.194Z,7.66
2023-03-27T00:13:59.207Z,7.71
2023-03-27T00:14:59.198Z,7.77
2023-03-27T00:15:59.187Z,7.83
2023-03-27T00:16:59.296Z,7.86
2023-03-27T00:17:59.242Z,7.91
2023-03-27T00:18:59.186Z,7.82
2023-03-27T00:19:59.212Z,7.71
2023-03-27T00:20:59.215Z,7.72
2023-03-27T00:21:59.230Z,7.70
2023-03-27T00:22:59.233Z,7.75
2023-03-27T00:23:59.209Z,7.80
2023-03-27T00:24:59.262Z,7.83
2023-03-27T00:25:59.221Z,7.85
2023-03-27T00:26:59.227Z,7.84
2023-03-27T00:27:59.237Z,7.83
2023-03-27T00:28:59.239Z,7.72
2023-03-27T00:30:59.694Z,7.75
2023-03-27T00:31:59.253Z,7.80
2023-03-27T00:32:59.270Z,7.79
2023-03-27T00:34:59.247Z,7.81
2023-03-27T00:35:59.294Z,7.82
2023-03-27T00:36:59.231Z,7.86
2023-03-27T00:37:59.319Z,7.89
2023-03-27T00:38:59.256Z,7.90
2023-03-27T00:39:59.263Z,7.91
2023-03-27T00:40:59.584Z,7.92
2023-03-27T00:41:59.265Z,7.88
2023-03-27T00:42:59.320Z,7.87
2023-03-27T00:43:59.290Z,7.85
2023-03-27T00:44:59.279Z,7.87
2023-03-27T00:45:59.293Z,7.86
2023-03-27T00:49:59.303Z,7.90
2023-03-27T00:50:59.308Z,7.91
2023-03-27T00:51:59.278Z,7.93
2023-03-27T00:52:59.271Z,7.94
2023-03-27T00:53:59.347Z,7.91
2023-03-27T00:54:59.320Z,7.93
2023-03-27T00:55:59.324Z,7.91
2023-03-27T00:56:59.312Z,7.83
2023-03-27T00:57:59.335Z,7.78
2023-03-27T00:58:59.304Z,7.75
2023-03-27T00:59:59.295Z,7.74
2023-03-27T01:00:59.509Z,7.73
2023-03-27T01:01:59.335Z,7.75
2023-03-27T01:03:01.095Z,7.77
2023-03-27T01:03:59.327Z,7.83
2023-03-27T01:04:59.314Z,7.85
2023-03-27T01:05:59.295Z,7.87
2023-03-27T01:08:00.837Z,7.88
2023-03-27T01:08:59.383Z,7.90
2023-03-27T01:09:59.334Z,7.84
2023-03-27T01:10:59.344Z,7.82
2023-03-27T01:11:59.326Z,7.78
2023-03-27T01:12:59.341Z,7.76
2023-03-27T01:13:59.379Z,7.74
2023-03-27T01:14:59.344Z,7.69
2023-03-27T01:15:59.542Z,7.65
2023-03-27T01:16:59.343Z,7.66
2023-03-27T01:17:59.364Z,7.64
2023-03-27T01:18:59.359Z,7.53
2023-03-27T01:19:59.347Z,7.52
2023-03-27T01:20:59.922Z,7.53
2023-03-27T01:21:59.401Z,7.55
2023-03-27T01:22:59.329Z,7.59
2023-03-27T01:24:00.858Z,7.63
2023-03-27T01:24:59.371Z,7.65
2023-03-27T01:25:59.365Z,7.70
2023-03-27T01:26:59.411Z,7.71
2023-03-27T01:27:59.356Z,7.76
2023-03-27T01:28:59.370Z,7.79
2023-03-27T01:29:59.349Z,7.82
2023-03-27T01:30:59.655Z,7.85
2023-03-27T01:31:59.525Z,7.86
2023-03-27T01:32:59.527Z,7.87
2023-03-27T01:35:01.212Z,7.90
2023-03-27T01:35:59.434Z,7.94
2023-03-27T01:36:59.398Z,7.96
2023-03-27T01:37:59.583Z,7.95
2023-03-27T01:39:59.463Z,7.96
2023-03-27T01:40:59.412Z,8.03
2023-03-27T01:41:59.390Z,8.08
2023-03-27T01:42:59.411Z,8.10
2023-03-27T01:44:02.584Z,8.11
2023-03-27T01:45:59.404Z,8.05
2023-03-27T01:46:59.471Z,8.02
2023-03-27T01:47:59.520Z,7.99
2023-03-27T01:48:59.428Z,7.91
2023-03-27T01:49:59.409Z,7.89
2023-03-27T01:50:59.428Z,7.90
2023-03-27T01:51:59.419Z,7.89
2023-03-27T01:52:59.467Z,7.88
2023-03-27T01:53:59.427Z,7.84
2023-03-27T01:54:59.429Z,7.78
2023-03-27T01:55:59.439Z,7.81
2023-03-27T01:56:59.474Z,7.82
2023-03-27T01:58:59.482Z,7.83
2023-03-27T02:00:17.486Z,7.88
2023-03-27T02:00:59.486Z,7.90
2023-03-27T02:01:59.463Z,7.94
2023-03-27T02:04:59.475Z,7.90
2023-03-27T02:05:59.495Z,7.96
2023-03-27T02:06:59.471Z,7.97
2023-03-27T02:07:59.457Z,7.98
2023-03-27T02:08:59.481Z,8.00
2023-03-27T02:09:59.509Z,7.98
2023-03-27T02:10:59.597Z,7.97
2023-03-27T02:11:59.496Z,7.93
2023-03-27T02:12:59.486Z,7.94
2023-03-27T02:13:59.495Z,7.96
2023-03-27T02:15:24.035Z,7.93
2023-03-27T02:15:59.528Z,7.88
2023-03-27T02:16:59.491Z,7.91
2023-03-27T02:17:59.528Z,7.98
2023-03-27T02:18:59.498Z,8.03
2023-03-27T02:19:59.517Z,8.05
2023-03-27T02:21:59.501Z,8.00
2023-03-27T02:22:59.506Z,7.94
2023-03-27T02:23:59.515Z,7.79
2023-03-27T02:24:59.486Z,7.66
2023-03-27T02:25:59.518Z,7.61
2023-03-27T02:26:59.527Z,7.59
2023-03-27T02:27:59.524Z,7.45
2023-03-27T02:28:59.521Z,7.40
2023-03-27T02:29:59.529Z,7.37
2023-03-27T02:31:06.582Z,7.34
2023-03-27T02:31:59.571Z,7.29
2023-03-27T02:32:59.560Z,7.27
2023-03-27T02:33:59.508Z,7.26
2023-03-27T02:34:59.525Z,7.25
2023-03-27T02:35:59.543Z,7.29
2023-03-27T02:36:59.549Z,7.34
2023-03-27T02:38:59.543Z,7.35
2023-03-27T02:39:59.563Z,7.40
2023-03-27T02:40:59.727Z,7.41
2023-03-27T02:41:59.567Z,7.43
2023-03-27T02:42:59.540Z,7.47
2023-03-27T02:43:59.571Z,7.44
2023-03-27T02:44:59.560Z,7.42
2023-03-27T02:46:59.566Z,7.44
2023-03-27T02:47:59.597Z,7.42
2023-03-27T02:48:59.568Z,7.47
2023-03-27T02:49:59.584Z,7.49
2023-03-27T02:50:59.687Z,7.53
2023-03-27T02:51:59.551Z,7.60
2023-03-27T02:52:59.582Z,7.65
2023-03-27T02:53:59.597Z,7.70
2023-03-27T02:54:59.598Z,7.72
2023-03-27T02:55:59.608Z,7.70
2023-03-27T02:56:59.635Z,7.74
2023-03-27T02:58:04.006Z,7.67
2023-03-27T02:58:59.614Z,7.72
2023-03-27T03:00:59.872Z,7.74
2023-03-27T03:01:59.606Z,7.71
2023-03-27T03:02:59.687Z,7.72
2023-03-27T03:03:59.597Z,7.73
2023-03-27T03:04:59.587Z,7.75
2023-03-27T03:05:59.588Z,7.72
2023-03-27T03:06:59.608Z,7.74
2023-03-27T03:07:59.611Z,7.76
2023-03-27T03:08:59.660Z,7.74
2023-03-27T03:09:59.626Z,7.77
2023-03-27T03:10:59.620Z,7.78
2023-03-27T03:13:59.688Z,7.81
2023-03-27T03:14:59.665Z,7.80
2023-03-27T03:15:59.632Z,7.83
2023-03-27T03:16:59.709Z,7.85
2023-03-27T03:17:59.675Z,7.90
2023-03-27T03:18:59.668Z,7.92
2023-03-27T03:19:59.641Z,7.90
2023-03-27T03:20:59.656Z,7.88
2023-03-27T03:21:59.678Z,7.90
2023-03-27T03:22:59.666Z,7.93
2023-03-27T03:23:59.634Z,7.95
2023-03-27T03:24:59.653Z,7.93
2023-03-27T03:26:59.672Z,7.97
2023-03-27T03:27:59.654Z,8.00
2023-03-27T03:29:01.297Z,7.99
2023-03-27T03:29:59.654Z,7.97
2023-03-27T03:31:00.028Z,7.93
2023-03-27T03:31:59.703Z,7.92
2023-03-27T03:32:59.703Z,7.93
2023-03-27T03:33:59.661Z,7.89
2023-03-27T03:35:59.706Z,7.88
2023-03-27T03:36:59.700Z,7.86
2023-03-27T03:37:59.720Z,7.82
2023-03-27T03:38:59.685Z,7.83
2023-03-27T03:39:59.722Z,7.84
2023-03-27T03:40:59.883Z,7.89
2023-03-27T03:41:59.683Z,7.91
2023-03-27T03:42:59.703Z,7.95
2023-03-27T03:43:59.687Z,8.00
2023-03-27T03:44:59.729Z,7.98
2023-03-27T03:45:59.729Z,7.87
2023-03-27T03:46:59.720Z,7.83
2023-03-27T03:47:59.740Z,7.81
2023-03-27T03:48:59.733Z,7.84
2023-03-27T03:49:59.762Z,7.86
2023-03-27T03:50:59.731Z,7.89
2023-03-27T03:52:04.167Z,7.93
2023-03-27T03:52:59.741Z,7.96
2023-03-27T03:53:59.744Z,8.02
2023-03-27T03:54:59.762Z,8.05
2023-03-27T03:55:59.726Z,7.97
2023-03-27T03:56:59.826Z,7.90
2023-03-27T03:57:59.753Z,7.87
2023-03-27T03:58:59.751Z,7.85
2023-03-27T03:59:59.732Z,7.80
2023-03-27T04:00:59.766Z,7.77
2023-03-27T04:01:59.774Z,7.80
2023-03-27T04:02:59.861Z,7.83
2023-03-27T04:03:59.730Z,7.89
2023-03-27T04:04:59.758Z,7.92
2023-03-27T04:05:59.780Z,7.94
2023-03-27T04:06:59.734Z,7.98
2023-03-27T04:07:59.789Z,7.99
2023-03-27T04:08:59.788Z,8.00
2023-03-27T04:09:59.769Z,7.94
2023-03-27T04:10:59.770Z,7.92
2023-03-27T04:12:04.710Z,7.91
2023-03-27T04:15:59.796Z,7.90
2023-03-27T04:16:59.776Z,7.93
2023-03-27T04:17:59.914Z,7.91
2023-03-27T04:18:59.789Z,7.86
2023-03-27T04:19:59.782Z,7.75
2023-03-27T04:22:59.826Z,7.69
2023-03-27T04:23:59.808Z,7.71
2023-03-27T04:24:59.776Z,7.68
2023-03-27T04:25:59.875Z,7.66
2023-03-27T04:26:59.785Z,7.68
2023-03-27T04:27:59.814Z,7.71
2023-03-27T04:28:59.828Z,7.77
2023-03-27T04:29:59.845Z,7.83
2023-03-27T04:31:00.063Z,7.91
2023-03-27T04:31:59.968Z,7.92
2023-03-27T04:32:59.930Z,7.96
2023-03-27T04:33:59.819Z,8.00
2023-03-27T04:34:59.838Z,8.07
2023-03-27T04:36:06.748Z,8.15
2023-03-27T04:36:59.807Z,8.20
2023-03-27T04:37:59.853Z,8.25
2023-03-27T04:38:59.844Z,8.28
2023-03-27T04:39:59.841Z,8.27
2023-03-27T04:42:59.841Z,8.29
2023-03-27T04:43:59.848Z,8.30
2023-03-27T04:44:59.875Z,8.32
2023-03-27T04:46:00.120Z,8.33
2023-03-27T04:46:59.904Z,8.30
2023-03-27T04:47:59.874Z,8.23
2023-03-27T04:48:59.884Z,8.25
2023-03-27T04:49:59.882Z,8.27
2023-03-27T04:50:59.886Z,8.29
2023-03-27T04:52:59.874Z,8.32
2023-03-27T04:53:59.897Z,8.25
2023-03-27T04:54:59.879Z,8.20
2023-03-27T04:55:59.913Z,8.15
2023-03-27T04:56:59.923Z,8.16
2023-03-27T04:57:59.886Z,8.17
2023-03-27T04:58:59.908Z,8.21
2023-03-27T05:01:00.208Z,8.18
2023-03-27T05:01:59.903Z,8.10
2023-03-27T05:02:59.960Z,8.11
2023-03-27T05:03:59.938Z,8.07
2023-03-27T05:04:59.886Z,8.01
2023-03-27T05:05:59.921Z,8.00
2023-03-27T05:06:59.918Z,7.98
2023-03-27T05:07:59.973Z,7.79
2023-03-27T05:08:59.926Z,7.67
2023-03-27T05:09:59.928Z,7.62
2023-03-27T05:10:59.900Z,7.68
2023-03-27T05:11:59.937Z,7.73
2023-03-27T05:12:59.899Z,7.76
2023-03-27T05:13:59.953Z,7.79
2023-03-27T05:14:59.913Z,7.85
2023-03-27T05:15:59.923Z,7.86
2023-03-27T05:16:59.922Z,7.91
2023-03-27T05:17:59.970Z,7.95
2023-03-27T05:18:59.901Z,7.93
2023-03-27T05:19:59.957Z,7.89
2023-03-27T05:20:59.946Z,7.87
2023-03-27T05:21:59.957Z,7.90
2023-03-27T05:23:00.481Z,7.91
2023-03-27T05:23:59.982Z,7.86
2023-03-27T05:24:59.982Z,7.84
2023-03-27T05:26:01.110Z,7.81
2023-03-27T05:26:59.973Z,7.85
2023-03-27T05:27:59.942Z,7.86
2023-03-27T05:29:00.016Z,7.82
2023-03-27T05:30:00.041Z,7.84
2023-03-27T05:31:00.308Z,7.90
2023-03-27T05:32:01.456Z,7.91
2023-03-27T05:32:59.977Z,7.93
2023-03-27T05:33:59.994Z,8.00
2023-03-27T05:34:59.953Z,8.05
2023-03-27T05:36:00.012Z,8.12
2023-03-27T05:36:59.982Z,8.16
2023-03-27T05:37:59.987Z,8.18
2023-03-27T05:39:59.999Z,8.19
2023-03-27T05:40:59.996Z,8.20
2023-03-27T05:42:00.000Z,8.13
2023-03-27T05:42:59.982Z,8.09
2023-03-27T05:43:59.978Z,8.08
2023-03-27T05:45:00.023Z,8.03
2023-03-27T05:46:00.100Z,8.04
2023-03-27T05:47:00.024Z,8.07
2023-03-27T05:48:00.121Z,8.11
2023-03-27T05:49:00.005Z,8.13
2023-03-27T05:50:00.000Z,8.16
2023-03-27T05:50:59.984Z,8.20
2023-03-27T05:52:00.062Z,8.25
2023-03-27T05:53:00.008Z,8.28
2023-03-27T05:53:59.998Z,8.29
2023-03-27T05:55:00.058Z,8.26
2023-03-27T05:56:02.963Z,8.24
2023-03-27T05:57:00.130Z,8.23
2023-03-27T05:58:00.094Z,8.19
2023-03-27T05:59:00.036Z,8.17
2023-03-27T06:00:01.011Z,8.18
2023-03-27T06:01:00.035Z,8.17
2023-03-27T06:02:00.052Z,8.16
2023-03-27T06:03:00.150Z,8.17
2023-03-27T06:04:00.101Z,8.19
2023-03-27T06:05:00.071Z,8.22
2023-03-27T06:06:00.195Z,8.19
2023-03-27T06:07:00.102Z,8.20
2023-03-27T06:08:00.119Z,8.24
2023-03-27T06:09:00.058Z,8.27
2023-03-27T06:10:00.109Z,8.30
2023-03-27T06:11:00.099Z,8.33
2023-03-27T06:12:00.098Z,8.35
2023-03-27T06:13:00.100Z,8.36
2023-03-27T06:16:00.444Z,8.31
2023-03-27T06:17:00.124Z,8.30
2023-03-27T06:19:00.095Z,8.32
2023-03-27T06:20:00.131Z,8.31
2023-03-27T06:21:00.106Z,8.29
2023-03-27T06:22:00.133Z,8.27
2023-03-27T06:23:00.110Z,8.24
2023-03-27T06:24:00.139Z,8.19
2023-03-27T06:25:00.127Z,8.16
2023-03-27T06:26:00.131Z,8.12
2023-03-27T06:27:00.108Z,8.13
2023-03-27T06:28:00.143Z,8.11
2023-03-27T06:29:00.151Z,8.12
2023-03-27T06:30:00.152Z,8.14
2023-03-27T06:31:00.190Z,8.16
2023-03-27T06:32:00.122Z,8.17
2023-03-27T06:33:00.185Z,8.20
2023-03-27T06:34:00.123Z,8.22
2023-03-27T06:35:00.153Z,8.17
2023-03-27T06:36:00.536Z,8.18
2023-03-27T06:37:01.373Z,8.17
2023-03-27T06:38:00.127Z,8.19
2023-03-27T06:39:00.176Z,8.25
2023-03-27T06:40:00.165Z,8.32
2023-03-27T06:41:00.222Z,8.42
2023-03-27T06:42:00.136Z,8.49
2023-03-27T06:43:00.149Z,8.52
2023-03-27T06:44:00.205Z,8.54
2023-03-27T06:45:00.140Z,8.53
2023-03-27T06:46:00.301Z,8.55
2023-03-27T06:47:00.264Z,8.59
2023-03-27T06:49:00.188Z,8.62
2023-03-27T06:50:00.209Z,8.64
2023-03-27T06:51:00.303Z,8.60
2023-03-27T06:52:00.168Z,8.62
2023-03-27T06:53:00.193Z,8.65
2023-03-27T06:54:00.187Z,8.66
2023-03-27T06:55:00.187Z,8.67
2023-03-27T06:56:00.416Z,8.65
2023-03-27T06:57:00.258Z,8.63
2023-03-27T06:58:00.190Z,8.58
2023-03-27T06:59:00.223Z,8.57
2023-03-27T07:01:00.186Z,8.52
2023-03-27T07:02:00.279Z,8.46
2023-03-27T07:03:00.264Z,8.47
2023-03-27T07:06:00.486Z,8.50
2023-03-27T07:07:00.216Z,8.40
2023-03-27T07:08:05.498Z,8.32
2023-03-27T07:09:00.221Z,8.23
2023-03-27T07:10:00.211Z,8.19
2023-03-27T07:11:11.666Z,8.17
2023-03-27T07:13:00.191Z,8.18
2023-03-27T07:14:01.690Z,8.16
2023-03-27T07:15:00.201Z,8.15
2023-03-27T07:16:00.218Z,8.14
2023-03-27T07:17:00.229Z,8.09
2023-03-27T07:18:00.290Z,8.08
2023-03-27T07:19:01.864Z,8.11
2023-03-27T07:20:00.217Z,8.14
2023-03-27T07:21:00.454Z,8.13
2023-03-27T07:22:00.342Z,8.16
2023-03-27T07:24:00.254Z,8.20
2023-03-27T07:25:00.226Z,8.24
2023-03-27T07:26:00.309Z,8.26
2023-03-27T07:27:00.270Z,8.30
2023-03-27T07:28:00.241Z,8.31
2023-03-27T07:29:00.678Z,8.35
2023-03-27T07:30:00.231Z,8.39
2023-03-27T07:31:00.226Z,8.43
2023-03-27T07:32:04.408Z,8.48
2023-03-27T07:33:00.387Z,8.55
2023-03-27T07:34:00.349Z,8.66
2023-03-27T07:35:00.292Z,8.88
2023-03-27T07:36:00.462Z,9.15
2023-03-27T07:37:00.257Z,9.79
2023-03-27T07:38:00.260Z,10.23
2023-03-27T07:39:00.263Z,12.16
2023-03-27T07:40:00.288Z,11.88
2023-03-27T07:41:00.286Z,11.81
2023-03-27T07:42:00.323Z,11.73
2023-03-27T07:43:00.310Z,11.54
2023-03-27T07:44:00.311Z,11.38
2023-03-27T07:45:01.781Z,11.29
2023-03-27T07:46:00.555Z,11.25
2023-03-27T07:47:00.302Z,11.18
2023-03-27T07:48:00.327Z,11.16
2023-03-27T07:50:00.279Z,11.21
2023-03-27T07:52:00.327Z,11.26
2023-03-27T07:53:00.299Z,11.24
2023-03-27T07:54:00.282Z,11.29
2023-03-27T07:55:00.354Z,11.43
2023-03-27T07:56:00.337Z,11.45
2023-03-27T07:57:00.386Z,12.18
2023-03-27T07:58:02.446Z,13.62
2023-03-27T07:59:00.310Z,13.96
2023-03-27T08:00:00.297Z,14.02
2023-03-27T08:01:00.309Z,14.47
2023-03-27T08:02:00.334Z,16.60
2023-03-27T08:03:00.518Z,18.26
2023-03-27T08:04:00.510Z,19.51
2023-03-27T08:05:00.413Z,21.04
2023-03-27T08:06:00.665Z,22.21
2023-03-27T08:07:00.351Z,23.47
2023-03-27T08:08:00.385Z,24.64
2023-03-27T08:09:02.272Z,25.36
2023-03-27T08:10:00.361Z,24.62
2023-03-27T08:11:00.350Z,25.12
2023-03-27T08:12:00.361Z,25.37
2023-03-27T08:13:00.358Z,25.23
2023-03-27T08:14:00.343Z,24.68
2023-03-27T08:15:00.347Z,24.07
2023-03-27T08:16:00.400Z,23.34
2023-03-27T08:17:14.706Z,22.43
2023-03-27T08:18:00.389Z,21.58
2023-03-27T08:19:00.395Z,20.65
2023-03-27T08:20:00.353Z,19.70
2023-03-27T08:21:00.406Z,18.71
2023-03-27T08:22:00.357Z,17.87
2023-03-27T08:23:00.361Z,17.06
2023-03-27T08:24:00.383Z,16.38
2023-03-27T08:25:00.380Z,15.78
2023-03-27T08:26:00.414Z,15.24
2023-03-27T08:27:00.399Z,14.79
2023-03-27T08:28:02.564Z,14.40
2023-03-27T08:29:00.378Z,13.99
2023-03-27T08:30:00.470Z,13.66
2023-03-27T08:31:03.082Z,13.33
2023-03-27T08:32:00.935Z,13.04
2023-03-27T08:33:00.482Z,12.76
2023-03-27T08:34:00.448Z,12.47
2023-03-27T08:35:00.401Z,12.21
2023-03-27T08:36:00.505Z,12.00
2023-03-27T08:37:00.402Z,11.82
2023-03-27T08:38:00.389Z,11.69
2023-03-27T08:39:00.408Z,11.57
2023-03-27T08:40:00.396Z,11.45
2023-03-27T08:41:00.424Z,11.29
2023-03-27T08:42:00.446Z,11.07
2023-03-27T08:43:00.437Z,10.90
2023-03-27T08:44:00.413Z,10.77
2023-03-27T08:45:00.432Z,10.67
2023-03-27T08:46:00.650Z,10.48
2023-03-27T08:47:00.492Z,10.39
2023-03-27T08:48:00.499Z,10.33
2023-03-27T08:49:00.461Z,10.24
2023-03-27T08:50:00.477Z,10.19
2023-03-27T08:51:00.453Z,10.15
2023-03-27T08:52:00.470Z,10.10
2023-03-27T08:53:00.448Z,10.08
2023-03-27T08:55:00.434Z,10.06
2023-03-27T08:56:00.469Z,10.04
2023-03-27T08:57:00.492Z,10.06
2023-03-27T08:58:00.478Z,10.07
2023-03-27T09:01:00.465Z,10.02
2023-03-27T09:02:00.533Z,9.97
2023-03-27T09:03:00.585Z,9.94
2023-03-27T09:04:00.611Z,9.92
2023-03-27T09:05:03.049Z,9.85
2023-03-27T09:06:00.492Z,9.81
2023-03-27T09:07:00.498Z,9.80
2023-03-27T09:08:00.507Z,9.78
2023-03-27T09:09:00.488Z,9.68
2023-03-27T09:10:00.517Z,9.56
2023-03-27T09:11:00.528Z,9.50
2023-03-27T09:12:00.542Z,9.47
2023-03-27T09:13:00.589Z,9.46
2023-03-27T09:14:00.485Z,9.45
2023-03-27T09:15:00.521Z,9.35
2023-03-27T09:16:00.694Z,9.27
2023-03-27T09:17:00.514Z,9.14
2023-03-27T09:18:00.605Z,9.10
2023-03-27T09:19:00.552Z,9.04
2023-03-27T09:20:00.532Z,8.98
2023-03-27T09:21:00.526Z,9.00
2023-03-27T09:22:00.538Z,9.01
2023-03-27T09:23:00.578Z,9.00
2023-03-27T09:24:00.566Z,9.02
2023-03-27T09:25:00.542Z,9.06
2023-03-27T09:26:00.558Z,9.07
2023-03-27T09:28:00.558Z,9.08
2023-03-27T09:29:00.549Z,9.07
2023-03-27T09:30:05.291Z,8.99
2023-03-27T09:31:00.590Z,8.90
2023-03-27T09:32:00.575Z,8.87
2023-03-27T09:33:00.564Z,8.82
2023-03-27T09:35:00.582Z,8.86
2023-03-27T09:36:00.964Z,8.92
2023-03-27T09:37:00.576Z,9.01
2023-03-27T09:38:00.578Z,9.05
2023-03-27T09:39:00.549Z,9.08
2023-03-27T09:40:00.567Z,9.14
2023-03-27T09:41:00.623Z,9.22
2023-03-27T09:42:07.261Z,9.27
2023-03-27T09:43:00.576Z,9.33
2023-03-27T09:44:00.615Z,9.41
2023-03-27T09:45:00.587Z,9.46
2023-03-27T09:46:00.568Z,9.52
2023-03-27T09:47:00.641Z,9.55
2023-03-27T09:48:00.608Z,9.61
2023-03-27T09:49:00.624Z,9.77
2023-03-27T09:50:00.609Z,9.91
2023-03-27T09:51:00.611Z,10.05
2023-03-27T09:52:00.620Z,10.12
2023-03-27T09:53:00.611Z,10.15
2023-03-27T09:54:00.627Z,10.19
2023-03-27T09:55:00.644Z,10.23
2023-03-27T09:56:02.991Z,10.27
2023-03-27T09:57:00.670Z,10.32
2023-03-27T09:58:00.612Z,10.35
2023-03-27T09:59:00.612Z,10.38
2023-03-27T10:00:00.611Z,10.43
2023-03-27T10:01:00.687Z,10.45
2023-03-27T10:02:00.653Z,10.44
2023-03-27T10:03:00.736Z,10.47
2023-03-27T10:04:00.665Z,10.50
2023-03-27T10:06:00.651Z,10.49
2023-03-27T10:07:00.651Z,10.48
2023-03-27T10:08:00.632Z,10.49
2023-03-27T10:09:00.642Z,10.52
2023-03-27T10:10:00.636Z,10.56
2023-03-27T10:11:00.671Z,10.65
2023-03-27T10:12:00.663Z,10.71
2023-03-27T10:13:00.647Z,10.74
2023-03-27T10:14:00.635Z,10.79
2023-03-27T10:15:01.484Z,10.82
2023-03-27T10:16:00.651Z,10.86
2023-03-27T10:17:00.730Z,10.91
2023-03-27T10:18:00.748Z,10.98
2023-03-27T10:19:03.861Z,10.99
2023-03-27T10:20:00.679Z,10.98
2023-03-27T10:21:00.668Z,10.99
2023-03-27T10:22:00.662Z,11.06
2023-03-27T10:23:00.732Z,11.18
2023-03-27T10:24:00.686Z,11.31
2023-03-27T10:25:00.738Z,11.43
2023-03-27T10:26:00.685Z,11.54
2023-03-27T10:27:00.681Z,11.63
2023-03-27T10:28:00.674Z,11.69
2023-03-27T10:29:00.675Z,11.74
2023-03-27T10:30:00.731Z,11.79
2023-03-27T10:31:00.699Z,11.78
2023-03-27T10:32:00.742Z,11.77
2023-03-27T10:33:00.704Z,11.79
2023-03-27T10:34:00.691Z,11.85
2023-03-27T10:35:00.743Z,11.90
2023-03-27T10:36:00.756Z,11.93
2023-03-27T10:39:00.697Z,11.91
2023-03-27T10:40:00.770Z,11.87
2023-03-27T10:41:00.721Z,11.83
2023-03-27T10:42:00.703Z,11.81
2023-03-27T10:44:00.763Z,11.78
2023-03-27T10:45:00.749Z,11.76
2023-03-27T10:46:00.796Z,11.75
2023-03-27T10:47:00.816Z,11.76
2023-03-27T10:50:00.727Z,11.75
2023-03-27T10:51:00.756Z,11.70
2023-03-27T10:52:00.718Z,11.66
2023-03-27T10:53:00.829Z,11.67
2023-03-27T10:54:00.804Z,11.70
2023-03-27T10:55:00.764Z,11.69
2023-03-27T10:56:04.251Z,11.70
2023-03-27T10:58:00.810Z,11.73
2023-03-27T10:59:00.753Z,11.75
2023-03-27T11:00:00.769Z,11.76
2023-03-27T11:01:00.861Z,11.78
2023-03-27T11:02:00.823Z,11.80
2023-03-27T11:04:00.803Z,11.81
2023-03-27T11:05:00.827Z,11.72
2023-03-27T11:06:00.789Z,11.69
2023-03-27T11:07:00.767Z,11.72
2023-03-27T11:08:00.825Z,11.78
2023-03-27T11:09:00.779Z,11.81
2023-03-27T11:10:00.763Z,11.83
2023-03-27T11:11:00.833Z,11.87
2023-03-27T11:12:00.786Z,11.90
2023-03-27T11:13:00.802Z,11.91
2023-03-27T11:14:00.783Z,11.90
2023-03-27T11:15:00.821Z,11.87
2023-03-27T11:16:00.828Z,11.82
2023-03-27T11:17:00.893Z,11.74
2023-03-27T11:18:00.857Z,11.68
2023-03-27T11:19:00.812Z,11.64
2023-03-27T11:20:00.845Z,11.63
2023-03-27T11:21:00.848Z,11.61
2023-03-27T11:23:00.816Z,11.58
2023-03-27T11:24:00.890Z,11.59
2023-03-27T11:25:00.833Z,11.61
2023-03-27T11:26:00.818Z,11.64
2023-03-27T11:27:00.843Z,11.68
2023-03-27T11:28:00.859Z,11.71
2023-03-27T11:29:00.863Z,11.68
2023-03-27T11:30:00.857Z,11.74
2023-03-27T11:31:12.085Z,11.83
2023-03-27T11:32:00.882Z,11.90
2023-03-27T11:33:04.661Z,11.98
2023-03-27T11:34:00.835Z,12.04
2023-03-27T11:36:00.921Z,12.01
2023-03-27T11:37:00.891Z,12.00
2023-03-27T11:38:00.838Z,12.01
2023-03-27T11:39:00.871Z,12.00
2023-03-27T11:40:00.897Z,12.07
2023-03-27T11:41:00.869Z,12.20
2023-03-27T11:42:00.886Z,12.29
2023-03-27T11:43:00.868Z,12.36
2023-03-27T11:44:00.870Z,12.50
2023-03-27T11:45:00.890Z,12.64
2023-03-27T11:46:00.906Z,12.70
2023-03-27T11:47:00.864Z,12.79
2023-03-27T11:49:00.882Z,12.78
2023-03-27T11:50:00.958Z,12.76
2023-03-27T11:52:00.878Z,12.73
2023-03-27T11:53:00.889Z,12.67
2023-03-27T11:54:00.890Z,12.57
2023-03-27T11:55:00.940Z,12.45
2023-03-27T11:56:00.894Z,12.38
2023-03-27T11:57:00.930Z,12.29
2023-03-27T11:58:00.898Z,12.17
2023-03-27T11:59:00.891Z,12.11
2023-03-27T12:00:00.894Z,12.02
2023-03-27T12:01:00.898Z,11.98
2023-03-27T12:02:00.946Z,11.95
2023-03-27T12:03:01.021Z,11.89
2023-03-27T12:04:01.009Z,11.85
2023-03-27T12:05:00.919Z,11.81
2023-03-27T12:06:00.950Z,11.79
2023-03-27T12:07:04.939Z,11.76
2023-03-27T12:08:01.001Z,11.70
2023-03-27T12:09:00.936Z,11.69
2023-03-27T12:10:05.194Z,11.68
2023-03-27T12:11:00.933Z,11.70
2023-03-27T12:12:00.960Z,11.65
2023-03-27T12:13:00.991Z,11.51
2023-03-27T12:14:02.376Z,11.36
2023-03-27T12:15:00.978Z,11.28
2023-03-27T12:16:00.969Z,11.27
2023-03-27T12:17:01.001Z,11.31
2023-03-27T12:18:01.029Z,11.36
2023-03-27T12:19:07.970Z,11.39
2023-03-27T12:21:01.217Z,11.43
2023-03-27T12:22:00.958Z,11.42
2023-03-27T12:23:00.976Z,11.39
2023-03-27T12:24:01.018Z,11.32
2023-03-27T12:25:00.981Z,11.26
2023-03-27T12:26:01.054Z,11.23
2023-03-27T12:27:00.997Z,11.20
2023-03-27T12:28:00.979Z,11.21
2023-03-27T12:29:01.007Z,11.22
2023-03-27T12:30:01.004Z,11.21
2023-03-27T12:31:01.057Z,11.23
2023-03-27T12:32:01.038Z,11.17
2023-03-27T12:33:01.062Z,11.07
2023-03-27T12:34:01.019Z,11.06
2023-03-27T12:35:01.051Z,11.05
2023-03-27T12:36:01.156Z,11.07
2023-03-27T12:37:01.025Z,11.09
2023-03-27T12:38:01.019Z,11.14
2023-03-27T12:39:01.034Z,11.15
2023-03-27T12:40:01.039Z,11.17
2023-03-27T12:41:01.063Z,11.18
2023-03-27T12:42:01.020Z,11.17
2023-03-27T12:44:01.079Z,11.16
2023-03-27T12:46:01.148Z,11.01
2023-03-27T12:47:07.735Z,10.95
2023-03-27T12:48:01.001Z,10.97
2023-03-27T12:49:01.055Z,11.03
2023-03-27T12:50:01.017Z,11.08
2023-03-27T12:51:01.369Z,11.15
2023-03-27T12:52:01.007Z,11.19
2023-03-27T12:53:01.053Z,11.20
2023-03-27T12:54:01.076Z,11.23
2023-03-27T12:55:01.051Z,11.24
2023-03-27T12:56:01.070Z,11.21
2023-03-27T12:57:01.194Z,11.16
2023-03-27T12:58:01.261Z,11.07
2023-03-27T12:59:01.078Z,10.98
2023-03-27T13:00:01.078Z,10.92
2023-03-27T13:01:01.271Z,10.89
2023-03-27T13:02:01.134Z,10.87
2023-03-27T13:03:01.079Z,10.86
2023-03-27T13:04:01.255Z,10.88
2023-03-27T13:05:01.062Z,10.93
2023-03-27T13:06:01.060Z,10.96
2023-03-27T13:07:01.117Z,11.00
2023-03-27T13:08:01.064Z,11.07
2023-03-27T13:09:01.065Z,11.13
2023-03-27T13:10:01.178Z,11.20
2023-03-27T13:11:01.108Z,11.27
2023-03-27T13:12:01.103Z,11.34
2023-03-27T13:13:01.082Z,11.37
2023-03-27T13:14:01.078Z,11.40
2023-03-27T13:15:01.082Z,11.39
2023-03-27T13:16:01.239Z,11.40
2023-03-27T13:17:01.131Z,11.35
2023-03-27T13:18:01.142Z,11.31
2023-03-27T13:19:01.143Z,11.32
2023-03-27T13:20:01.120Z,11.33
2023-03-27T13:21:01.111Z,11.31
2023-03-27T13:22:01.137Z,11.29
2023-03-27T13:23:01.117Z,11.30
2023-03-27T13:24:07.536Z,11.32
2023-03-27T13:25:01.138Z,11.36
2023-03-27T13:26:01.114Z,11.40
2023-03-27T13:27:01.115Z,11.42
2023-03-27T13:29:01.149Z,11.38
2023-03-27T13:31:01.151Z,11.35
2023-03-27T13:33:01.284Z,11.36
2023-03-27T13:34:01.138Z,11.38
2023-03-27T13:35:01.202Z,11.36
2023-03-27T13:36:01.358Z,11.24
2023-03-27T13:37:06.454Z,11.19
2023-03-27T13:38:01.181Z,11.18
2023-03-27T13:39:01.185Z,11.23
2023-03-27T13:40:01.155Z,11.30
2023-03-27T13:41:01.172Z,11.33
2023-03-27T13:42:02.532Z,11.35
2023-03-27T13:43:01.199Z,11.40
2023-03-27T13:44:01.203Z,11.34
2023-03-27T13:45:01.193Z,11.41
2023-03-27T13:46:01.179Z,11.37
2023-03-27T13:47:01.248Z,11.30
2023-03-27T13:49:01.195Z,11.31
2023-03-27T13:50:02.188Z,11.33
2023-03-27T13:51:01.206Z,11.41
2023-03-27T13:52:01.196Z,11.46
2023-03-27T13:53:01.226Z,11.52
2023-03-27T13:54:01.229Z,11.53
2023-03-27T13:55:01.207Z,11.55
2023-03-27T13:56:01.205Z,11.58
2023-03-27T13:57:01.262Z,11.66
2023-03-27T13:58:01.438Z,11.77
2023-03-27T13:59:01.213Z,11.81
2023-03-27T14:00:01.223Z,11.84
2023-03-27T14:01:01.265Z,11.86
2023-03-27T14:02:01.310Z,11.84
2023-03-27T14:03:01.287Z,11.76
2023-03-27T14:04:01.250Z,11.67
2023-03-27T14:05:01.241Z,11.63
2023-03-27T14:06:01.591Z,11.61
2023-03-27T14:07:01.240Z,11.60
2023-03-27T14:08:01.239Z,11.59
2023-03-27T14:09:01.383Z,11.48
2023-03-27T14:10:01.255Z,11.43
2023-03-27T14:11:01.279Z,11.41
2023-03-27T14:12:01.246Z,11.31
2023-03-27T14:13:01.224Z,11.23